sensor_id;sensor_type;location;lat;lon;timestamp;pressure;altitude;pressure_sealevel;temperature;humidity
45275;BME280;31019;43.780;25.948;2023-03-04T00:01:28;101284.97;;;4.38;100.00
45275;BME280;31019;43.780;25.948;2023-03-04T00:03:55;101281.09;;;4.42;100.00
45275;BME280;31019;43.780;25.948;2023-03-04T00:06:22;101287.25;;;4.33;100.00
45275;BME280;31019;43.780;25.948;2023-03-04T00:08:48;101280.41;;;4.22;100.00
45275;BME280;31019;43.780;25.948;2023-03-04T00:11:17;101277.16;;;4.28;100.00
45275;BME280;31019;43.780;25.948;2023-03-04T00:13:43;101283.78;;;4.32;100.00
45275;BME280;31019;43.780;25.948;2023-03-04T00:16:10;101284.97;;;4.38;100.00
45275;BME280;31019;43.780;25.948;2023-03-04T00:18:37;101275.59;;;4.35;100.00
45275;BME280;31019;43.780;25.948;2023-03-04T00:21:04;101278.91;;;4.38;100.00
45275;BME280;31019;43.780;25.948;2023-03-04T00:23:30;101275.75;;;4.34;100.00
45275;BME280;31019;43.780;25.948;2023-03-04T00:25:57;101273.81;;;4.36;100.00
45275;BME280;31019;43.780;25.948;2023-03-04T00:28:25;101267.84;;;4.34;100.00
45275;BME280;31019;43.780;25.948;2023-03-04T00:30:52;101273.50;;;4.39;100.00
45275;BME280;31019;43.780;25.948;2023-03-04T00:33:19;101268.53;;;4.18;100.00
45275;BME280;31019;43.780;25.948;2023-03-04T00:35:45;101274.75;;;4.35;100.00
45275;BME280;31019;43.780;25.948;2023-03-04T00:38:12;101274.31;;;4.40;100.00
45275;BME280;31019;43.780;25.948;2023-03-04T00:40:39;101269.66;;;4.16;100.00
45275;BME280;31019;43.780;25.948;2023-03-04T00:43:05;101275.38;;;4.29;100.00
45275;BME280;31019;43.780;25.948;2023-03-04T00:45:33;101272.00;;;4.36;100.00
45275;BME280;31019;43.780;25.948;2023-03-04T00:48:00;101274.84;;;4.43;100.00
45275;BME280;31019;43.780;25.948;2023-03-04T00:50:27;101274.66;;;4.45;100.00
45275;BME280;31019;43.780;25.948;2023-03-04T00:52:54;101270.00;;;4.39;100.00
45275;BME280;31019;43.780;25.948;2023-03-04T00:55:20;101270.41;;;4.44;100.00
45275;BME280;31019;43.780;25.948;2023-03-04T00:57:47;101273.72;;;4.28;100.00
45275;BME280;31019;43.780;25.948;2023-03-04T01:02:42;101272.22;;;4.43;100.00
45275;BME280;31019;43.780;25.948;2023-03-04T01:05:10;101268.88;;;4.41;100.00
45275;BME280;31019;43.780;25.948;2023-03-04T01:07:37;101274.97;;;4.42;100.00
45275;BME280;31019;43.780;25.948;2023-03-04T01:10:05;101274.31;;;4.40;100.00
45275;BME280;31019;43.780;25.948;2023-03-04T01:12:32;101268.44;;;4.46;100.00
45275;BME280;31019;43.780;25.948;2023-03-04T01:14:59;101267.84;;;4.52;100.00
45275;BME280;31019;43.780;25.948;2023-03-04T01:17:26;101272.28;;;4.51;100.00
45275;BME280;31019;43.780;25.948;2023-03-04T01:19:54;101275.72;;;4.52;100.00
45275;BME280;31019;43.780;25.948;2023-03-04T01:22:21;101270.78;;;4.49;100.00
45275;BME280;31019;43.780;25.948;2023-03-04T01:24:47;101271.81;;;4.38;100.00
45275;BME280;31019;43.780;25.948;2023-03-04T01:27:14;101271.06;;;4.46;100.00
45275;BME280;31019;43.780;25.948;2023-03-04T01:29:41;101257.75;;;4.47;100.00
45275;BME280;31019;43.780;25.948;2023-03-04T01:32:07;101257.31;;;4.52;100.00
45275;BME280;31019;43.780;25.948;2023-03-04T01:34:34;101254.09;;;4.40;100.00
45275;BME280;31019;43.780;25.948;2023-03-04T01:37:03;101251.28;;;4.42;100.00
45275;BME280;31019;43.780;25.948;2023-03-04T01:39:29;101252.34;;;4.49;100.00
45275;BME280;31019;43.780;25.948;2023-03-04T01:41:56;101255.38;;;4.54;100.00
45275;BME280;31019;43.780;25.948;2023-03-04T01:44:23;101257.44;;;4.50;100.00
45275;BME280;31019;43.780;25.948;2023-03-04T01:46:51;101253.88;;;4.51;100.00
45275;BME280;31019;43.780;25.948;2023-03-04T01:49:19;101249.44;;;4.52;100.00
45275;BME280;31019;43.780;25.948;2023-03-04T01:51:48;101243.34;;;4.51;100.00
45275;BME280;31019;43.780;25.948;2023-03-04T01:54:16;101243.34;;;4.51;100.00
45275;BME280;31019;43.780;25.948;2023-03-04T01:56:45;101237.69;;;4.46;100.00
45275;BME280;31019;43.780;25.948;2023-03-04T01:59:13;101228.47;;;4.42;100.00
45275;BME280;31019;43.780;25.948;2023-03-04T02:01:42;101234.09;;;4.47;100.00
45275;BME280;31019;43.780;25.948;2023-03-04T02:04:09;101229.00;;;4.46;100.00
45275;BME280;31019;43.780;25.948;2023-03-04T02:06:38;101235.81;;;4.39;100.00
45275;BME280;31019;43.780;25.948;2023-03-04T02:09:06;101238.50;;;4.21;100.00
45275;BME280;31019;43.780;25.948;2023-03-04T02:11:35;101238.53;;;4.29;100.00
45275;BME280;31019;43.780;25.948;2023-03-04T02:14:03;101240.56;;;4.35;100.00
45275;BME280;31019;43.780;25.948;2023-03-04T02:16:31;101226.28;;;4.38;100.00
45275;BME280;31019;43.780;25.948;2023-03-04T02:18:58;101232.03;;;4.33;100.00
45275;BME280;31019;43.780;25.948;2023-03-04T02:21:26;101230.81;;;4.27;100.00
45275;BME280;31019;43.780;25.948;2023-03-04T02:24:01;101229.09;;;4.36;100.00
45275;BME280;31019;43.780;25.948;2023-03-04T02:26:31;101244.63;;;4.29;100.00
45275;BME280;31019;43.780;25.948;2023-03-04T02:29:00;101239.63;;;4.18;100.00
45275;BME280;31019;43.780;25.948;2023-03-04T02:31:29;101234.28;;;4.28;100.00
45275;BME280;31019;43.780;25.948;2023-03-04T02:33:59;101241.47;;;4.26;100.00
45275;BME280;31019;43.780;25.948;2023-03-04T02:36:27;101242.31;;;4.26;100.00
45275;BME280;31019;43.780;25.948;2023-03-04T02:38:55;101235.91;;;4.29;100.00
45275;BME280;31019;43.780;25.948;2023-03-04T02:41:28;101239.22;;;4.31;100.00
45275;BME280;31019;43.780;25.948;2023-03-04T02:43:56;101239.53;;;4.28;100.00
45275;BME280;31019;43.780;25.948;2023-03-04T02:46:22;101229.69;;;4.30;100.00
45275;BME280;31019;43.780;25.948;2023-03-04T02:48:50;101231.84;;;4.34;100.00
45275;BME280;31019;43.780;25.948;2023-03-04T02:51:17;101228.72;;;4.31;100.00
45275;BME280;31019;43.780;25.948;2023-03-04T02:53:44;101231.84;;;4.34;100.00
45275;BME280;31019;43.780;25.948;2023-03-04T02:56:10;101230.84;;;4.09;100.00
45275;BME280;31019;43.780;25.948;2023-03-04T02:58:37;101226.19;;;4.21;100.00
45275;BME280;31019;43.780;25.948;2023-03-04T03:01:06;101227.81;;;4.22;100.00
45275;BME280;31019;43.780;25.948;2023-03-04T03:03:33;101223.78;;;4.10;100.00
45275;BME280;31019;43.780;25.948;2023-03-04T03:06:00;101228.34;;;4.26;100.00
45275;BME280;31019;43.780;25.948;2023-03-04T03:08:27;101230.31;;;4.24;100.00
45275;BME280;31019;43.780;25.948;2023-03-04T03:10:53;101225.78;;;4.34;100.00
45275;BME280;31019;43.780;25.948;2023-03-04T03:13:20;101220.41;;;4.18;100.00
45275;BME280;31019;43.780;25.948;2023-03-04T03:15:47;101219.34;;;4.10;100.00
45275;BME280;31019;43.780;25.948;2023-03-04T03:18:15;101222.78;;;4.29;100.00
45275;BME280;31019;43.780;25.948;2023-03-04T03:20:42;101216.69;;;4.28;100.00
45275;BME280;31019;43.780;25.948;2023-03-04T03:23:08;101223.06;;;4.26;100.00
45275;BME280;31019;43.780;25.948;2023-03-04T03:25:35;101223.28;;;4.32;100.00
45275;BME280;31019;43.780;25.948;2023-03-04T03:28:02;101225.59;;;4.35;100.00
45275;BME280;31019;43.780;25.948;2023-03-04T03:30:29;101219.84;;;4.32;100.00
45275;BME280;31019;43.780;25.948;2023-03-04T03:32:55;101227.09;;;4.38;100.00
45275;BME280;31019;43.780;25.948;2023-03-04T03:35:24;101220.59;;;4.42;100.00
45275;BME280;31019;43.780;25.948;2023-03-04T03:37:50;101223.81;;;4.36;100.00
45275;BME280;31019;43.780;25.948;2023-03-04T03:40:17;101225.59;;;4.35;100.00
45275;BME280;31019;43.780;25.948;2023-03-04T03:42:44;101228.25;;;4.35;100.00
45275;BME280;31019;43.780;25.948;2023-03-04T03:45:11;101217.88;;;4.34;100.00
45275;BME280;31019;43.780;25.948;2023-03-04T03:47:38;101221.19;;;4.36;100.00
45275;BME280;31019;43.780;25.948;2023-03-04T03:50:05;101215.41;;;4.32;100.00
45275;BME280;31019;43.780;25.948;2023-03-04T03:52:33;101216.59;;;4.38;100.00
45275;BME280;31019;43.780;25.948;2023-03-04T03:55:00;101213.72;;;4.49;100.00
45275;BME280;31019;43.780;25.948;2023-03-04T03:57:27;101207.34;;;4.52;100.00
45275;BME280;31019;43.780;25.948;2023-03-04T03:59:54;101215.66;;;4.47;100.00
45275;BME280;31019;43.780;25.948;2023-03-04T04:02:21;101216.25;;;4.59;100.00
45275;BME280;31019;43.780;25.948;2023-03-04T04:04:48;101212.59;;;4.52;100.00
45275;BME280;31019;43.780;25.948;2023-03-04T04:07:15;101213.72;;;4.49;100.00
45275;BME280;31019;43.780;25.948;2023-03-04T04:09:43;101209.75;;;4.45;100.00
45275;BME280;31019;43.780;25.948;2023-03-04T04:12:12;101208.34;;;4.59;100.00
45275;BME280;31019;43.780;25.948;2023-03-04T04:14:40;101211.16;;;4.57;100.00
45275;BME280;31019;43.780;25.948;2023-03-04T04:17:06;101205.72;;;4.59;100.00
45275;BME280;31019;43.780;25.948;2023-03-04T04:19:33;101209.97;;;4.52;100.00
45275;BME280;31019;43.780;25.948;2023-03-04T04:22:00;101213.09;;;4.55;100.00
45275;BME280;31019;43.780;25.948;2023-03-04T04:24:27;101209.34;;;4.58;100.00
45275;BME280;31019;43.780;25.948;2023-03-04T04:26:55;101203.84;;;4.69;100.00
45275;BME280;31019;43.780;25.948;2023-03-04T04:29:23;101207.22;;;4.62;100.00
45275;BME280;31019;43.780;25.948;2023-03-04T04:31:49;101210.34;;;4.57;100.00
45275;BME280;31019;43.780;25.948;2023-03-04T04:34:16;101203.78;;;4.61;100.00
45275;BME280;31019;43.780;25.948;2023-03-04T04:36:43;101214.00;;;4.64;100.00
45275;BME280;31019;43.780;25.948;2023-03-04T04:39:10;101213.50;;;4.69;100.00
45275;BME280;31019;43.780;25.948;2023-03-04T04:41:38;101218.56;;;4.62;100.00
45275;BME280;31019;43.780;25.948;2023-03-04T04:44:08;101213.16;;;4.64;100.00
45275;BME280;31019;43.780;25.948;2023-03-04T04:46:35;101214.66;;;4.66;100.00
45275;BME280;31019;43.780;25.948;2023-03-04T04:49:02;101213.00;;;4.65;100.00
45275;BME280;31019;43.780;25.948;2023-03-04T04:51:29;101217.75;;;4.62;100.00
45275;BME280;31019;43.780;25.948;2023-03-04T04:53:56;101234.31;;;4.54;100.00
45275;BME280;31019;43.780;25.948;2023-03-04T04:56:24;101245.69;;;4.63;100.00
45275;BME280;31019;43.780;25.948;2023-03-04T04:58:51;101242.75;;;4.66;100.00
45275;BME280;31019;43.780;25.948;2023-03-04T05:01:20;101238.69;;;4.71;100.00
45275;BME280;31019;43.780;25.948;2023-03-04T05:03:47;101246.59;;;4.45;100.00
45275;BME280;31019;43.780;25.948;2023-03-04T05:06:18;101237.09;;;4.52;100.00
45275;BME280;31019;43.780;25.948;2023-03-04T05:08:44;101236.53;;;4.67;100.00
45275;BME280;31019;43.780;25.948;2023-03-04T05:11:11;101237.34;;;4.67;100.00
45275;BME280;31019;43.780;25.948;2023-03-04T05:13:38;101243.63;;;4.66;100.00
45275;BME280;31019;43.780;25.948;2023-03-04T05:16:06;101240.34;;;4.72;100.00
45275;BME280;31019;43.780;25.948;2023-03-04T05:18:34;101246.13;;;4.76;100.00
45275;BME280;31019;43.780;25.948;2023-03-04T05:21:02;101246.47;;;4.81;100.00
45275;BME280;31019;43.780;25.948;2023-03-04T05:23:31;101239.78;;;4.87;100.00
45275;BME280;31019;43.780;25.948;2023-03-04T05:25:58;101241.06;;;4.82;100.00
45275;BME280;31019;43.780;25.948;2023-03-04T05:28:25;101241.00;;;4.74;100.00
45275;BME280;31019;43.780;25.948;2023-03-04T05:30:52;101244.56;;;4.65;100.00
45275;BME280;31019;43.780;25.948;2023-03-04T05:33:19;101238.69;;;4.71;100.00
45275;BME280;31019;43.780;25.948;2023-03-04T05:35:47;101250.91;;;4.80;100.00
45275;BME280;31019;43.780;25.948;2023-03-04T05:38:16;101242.06;;;4.81;100.00
45275;BME280;31019;43.780;25.948;2023-03-04T05:40:44;101243.84;;;4.81;100.00
45275;BME280;31019;43.780;25.948;2023-03-04T05:43:11;101247.91;;;4.93;100.00
45275;BME280;31019;43.780;25.948;2023-03-04T05:45:38;101245.78;;;4.97;100.00
45275;BME280;31019;43.780;25.948;2023-03-04T05:48:06;101250.22;;;4.96;100.00
45275;BME280;31019;43.780;25.948;2023-03-04T05:50:34;101254.38;;;5.07;100.00
45275;BME280;31019;43.780;25.948;2023-03-04T05:53:02;101259.69;;;5.15;100.00
45275;BME280;31019;43.780;25.948;2023-03-04T05:55:28;101262.28;;;5.07;100.00
45275;BME280;31019;43.780;25.948;2023-03-04T05:57:56;101261.84;;;5.20;100.00
45275;BME280;31019;43.780;25.948;2023-03-04T06:00:23;101263.50;;;5.21;100.00
45275;BME280;31019;43.780;25.948;2023-03-04T06:02:50;101266.41;;;5.10;100.00
45275;BME280;31019;43.780;25.948;2023-03-04T06:05:17;101269.72;;;5.12;100.00
45275;BME280;31019;43.780;25.948;2023-03-04T06:07:44;101272.38;;;5.20;100.00
45275;BME280;31019;43.780;25.948;2023-03-04T06:10:14;101269.31;;;5.33;100.00
45275;BME280;31019;43.780;25.948;2023-03-04T06:12:41;101270.47;;;5.30;100.00
45275;BME280;31019;43.780;25.948;2023-03-04T06:15:09;101270.59;;;5.28;100.00
45275;BME280;31019;43.780;25.948;2023-03-04T06:17:36;101276.75;;;5.37;100.00
45275;BME280;31019;43.780;25.948;2023-03-04T06:20:04;101283.47;;;5.32;100.00
45275;BME280;31019;43.780;25.948;2023-03-04T06:22:31;101274.91;;;5.30;100.00
45275;BME280;31019;43.780;25.948;2023-03-04T06:24:58;101284.81;;;5.44;100.00
45275;BME280;31019;43.780;25.948;2023-03-04T06:27:26;101286.69;;;5.51;100.00
45275;BME280;31019;43.780;25.948;2023-03-04T06:29:53;101284.97;;;5.34;100.00
45275;BME280;31019;43.780;25.948;2023-03-04T06:32:21;101283.69;;;5.46;100.00
45275;BME280;31019;43.780;25.948;2023-03-04T06:34:47;101289.31;;;5.60;100.00
45275;BME280;31019;43.780;25.948;2023-03-04T06:37:14;101293.13;;;5.57;100.00
45275;BME280;31019;43.780;25.948;2023-03-04T06:39:41;101290.28;;;5.50;100.00
45275;BME280;31019;43.780;25.948;2023-03-04T06:42:07;101293.19;;;5.73;100.00
45275;BME280;31019;43.780;25.948;2023-03-04T06:44:35;101295.03;;;5.81;100.00
45275;BME280;31019;43.780;25.948;2023-03-04T06:47:02;101290.53;;;5.73;100.00
45275;BME280;31019;43.780;25.948;2023-03-04T06:49:29;101298.34;;;5.91;100.00
45275;BME280;31019;43.780;25.948;2023-03-04T06:51:55;101296.41;;;5.93;100.00
45275;BME280;31019;43.780;25.948;2023-03-04T06:54:22;101294.72;;;5.92;100.00
45275;BME280;31019;43.780;25.948;2023-03-04T06:56:49;101292.47;;;6.06;100.00
45275;BME280;31019;43.780;25.948;2023-03-04T06:59:16;101296.78;;;6.15;100.00
45275;BME280;31019;43.780;25.948;2023-03-04T07:01:44;101301.59;;;6.36;100.00
45275;BME280;31019;43.780;25.948;2023-03-04T07:04:12;101300.25;;;6.32;100.00
45275;BME280;31019;43.780;25.948;2023-03-04T07:06:39;101303.38;;;6.35;100.00
45275;BME280;31019;43.780;25.948;2023-03-04T07:09:06;101293.50;;;6.46;100.00
45275;BME280;31019;43.780;25.948;2023-03-04T07:11:33;101296.47;;;6.59;100.00
45275;BME280;31019;43.780;25.948;2023-03-04T07:13:59;101291.66;;;6.62;100.00
45275;BME280;31019;43.780;25.948;2023-03-04T07:16:26;101282.59;;;6.73;100.00
45275;BME280;31019;43.780;25.948;2023-03-04T07:18:54;101283.06;;;6.93;100.00
45275;BME280;31019;43.780;25.948;2023-03-04T07:21:21;101277.09;;;7.07;100.00
45275;BME280;31019;43.780;25.948;2023-03-04T07:23:48;101276.91;;;7.88;100.00
45275;BME280;31019;43.780;25.948;2023-03-04T07:26:15;101275.06;;;7.96;100.00
45275;BME280;31019;43.780;25.948;2023-03-04T07:28:42;101275.34;;;8.24;100.00
45275;BME280;31019;43.780;25.948;2023-03-04T07:31:11;101266.31;;;7.96;100.00
45275;BME280;31019;43.780;25.948;2023-03-04T07:33:38;101258.59;;;7.55;100.00
45275;BME280;31019;43.780;25.948;2023-03-04T07:36:07;101262.78;;;7.72;100.00
45275;BME280;31019;43.780;25.948;2023-03-04T07:38:33;101245.06;;;7.81;100.00
45275;BME280;31019;43.780;25.948;2023-03-04T07:41:00;101252.75;;;8.60;100.00
45275;BME280;31019;43.780;25.948;2023-03-04T07:43:28;101247.53;;;8.29;100.00
45275;BME280;31019;43.780;25.948;2023-03-04T07:45:58;101250.31;;;7.58;100.00
45275;BME280;31019;43.780;25.948;2023-03-04T07:48:26;101252.56;;;7.69;100.00
45275;BME280;31019;43.780;25.948;2023-03-04T07:51:08;101244.00;;;8.13;100.00
45275;BME280;31019;43.780;25.948;2023-03-04T07:53:36;101249.81;;;7.63;100.00
45275;BME280;31019;43.780;25.948;2023-03-04T07:56:05;101245.06;;;7.81;100.00
45275;BME280;31019;43.780;25.948;2023-03-04T07:58:32;101253.94;;;7.88;100.00
45275;BME280;31019;43.780;25.948;2023-03-04T08:00:58;101249.13;;;7.61;100.00
45275;BME280;31019;43.780;25.948;2023-03-04T08:03:27;101237.81;;;7.98;100.00
45275;BME280;31019;43.780;25.948;2023-03-04T08:05:54;101239.38;;;8.38;100.00
45275;BME280;31019;43.780;25.948;2023-03-04T08:08:22;101233.13;;;8.31;100.00
45275;BME280;31019;43.780;25.948;2023-03-04T08:10:49;101232.13;;;7.86;100.00
45275;BME280;31019;43.780;25.948;2023-03-04T08:13:15;101228.84;;;7.53;100.00
45275;BME280;31019;43.780;25.948;2023-03-04T08:15:42;101223.28;;;8.17;100.00
45275;BME280;31019;43.780;25.948;2023-03-04T08:18:09;101228.47;;;8.10;100.00
45275;BME280;31019;43.780;25.948;2023-03-04T08:20:40;101229.81;;;7.83;100.00
45275;BME280;31019;43.780;25.948;2023-03-04T08:23:07;101225.53;;;7.82;100.00
45275;BME280;31019;43.780;25.948;2023-03-04T08:25:37;101222.34;;;8.70;100.00
45275;BME280;31019;43.780;25.948;2023-03-04T08:28:04;101223.41;;;8.46;100.00
45275;BME280;31019;43.780;25.948;2023-03-04T08:30:31;101209.09;;;9.45;100.00
45275;BME280;31019;43.780;25.948;2023-03-04T08:32:58;101222.09;;;9.10;100.00
45275;BME280;31019;43.780;25.948;2023-03-04T08:35:24;101213.31;;;8.94;100.00
45275;BME280;31019;43.780;25.948;2023-03-04T08:37:51;101207.13;;;8.87;100.00
45275;BME280;31019;43.780;25.948;2023-03-04T08:40:18;101209.69;;;8.66;100.00
45275;BME280;31019;43.780;25.948;2023-03-04T08:42:46;101211.69;;;9.23;100.00
45275;BME280;31019;43.780;25.948;2023-03-04T08:45:13;101207.66;;;9.27;100.00
45275;BME280;31019;43.780;25.948;2023-03-04T08:47:40;101206.03;;;8.97;100.00
45275;BME280;31019;43.780;25.948;2023-03-04T08:50:07;101210.84;;;8.48;100.00
45275;BME280;31019;43.780;25.948;2023-03-04T08:52:34;101202.56;;;8.66;100.00
45275;BME280;31019;43.780;25.948;2023-03-04T08:55:02;101197.34;;;8.73;100.00
45275;BME280;31019;43.780;25.948;2023-03-04T08:57:29;101205.28;;;7.97;100.00
45275;BME280;31019;43.780;25.948;2023-03-04T08:59:57;101204.19;;;9.12;100.00
45275;BME280;31019;43.780;25.948;2023-03-04T09:02:23;101202.22;;;8.09;100.00
45275;BME280;31019;43.780;25.948;2023-03-04T09:04:50;101191.19;;;8.43;100.00
45275;BME280;31019;43.780;25.948;2023-03-04T09:07:17;101187.25;;;9.28;100.00
45275;BME280;31019;43.780;25.948;2023-03-04T09:09:44;101183.31;;;9.38;100.00
45275;BME280;31019;43.780;25.948;2023-03-04T09:12:10;101180.31;;;10.27;100.00
45275;BME280;31019;43.780;25.948;2023-03-04T09:14:37;101180.56;;;9.32;100.00
45275;BME280;31019;43.780;25.948;2023-03-04T09:17:05;101177.47;;;9.28;100.00
45275;BME280;31019;43.780;25.948;2023-03-04T09:19:32;101171.41;;;9.34;100.00
45275;BME280;31019;43.780;25.948;2023-03-04T09:21:59;101173.66;;;10.73;100.00
45275;BME280;31019;43.780;25.948;2023-03-04T09:24:26;101170.13;;;9.45;100.00
45275;BME280;31019;43.780;25.948;2023-03-04T09:26:53;101171.69;;;9.39;100.00
45275;BME280;31019;43.780;25.948;2023-03-04T09:29:20;101170.56;;;10.13;100.00
45275;BME280;31019;43.780;25.948;2023-03-04T09:31:47;101167.38;;;9.75;100.00
45275;BME280;31019;43.780;25.948;2023-03-04T09:34:15;101158.97;;;12.00;100.00
45275;BME280;31019;43.780;25.948;2023-03-04T09:36:42;101156.56;;;10.47;100.00
45275;BME280;31019;43.780;25.948;2023-03-04T09:39:09;101163.59;;;10.34;100.00
45275;BME280;31019;43.780;25.948;2023-03-04T09:41:39;101159.63;;;9.37;100.00
45275;BME280;31019;43.780;25.948;2023-03-04T09:44:14;101166.16;;;9.20;100.00
45275;BME280;31019;43.780;25.948;2023-03-04T09:46:43;101159.22;;;9.55;100.00
45275;BME280;31019;43.780;25.948;2023-03-04T09:49:12;101149.53;;;10.12;100.00
45275;BME280;31019;43.780;25.948;2023-03-04T09:51:50;101136.00;;;11.85;100.00
45275;BME280;31019;43.780;25.948;2023-03-04T09:54:28;101138.31;;;11.20;100.00
45275;BME280;31019;43.780;25.948;2023-03-04T09:56:59;101130.81;;;11.44;100.00
45275;BME280;31019;43.780;25.948;2023-03-04T09:59:34;101125.72;;;13.07;100.00
45275;BME280;31019;43.780;25.948;2023-03-04T10:02:16;101127.63;;;11.07;100.00
45275;BME280;31019;43.780;25.948;2023-03-04T10:04:49;101134.72;;;10.24;100.00
45275;BME280;31019;43.780;25.948;2023-03-04T10:07:21;101120.91;;;11.18;100.00
45275;BME280;31019;43.780;25.948;2023-03-04T10:09:50;101121.72;;;10.64;100.00
45275;BME280;31019;43.780;25.948;2023-03-04T10:12:21;101125.53;;;11.64;100.00
45275;BME280;31019;43.780;25.948;2023-03-04T10:14:51;101119.84;;;10.99;100.00
45275;BME280;31019;43.780;25.948;2023-03-04T10:18:02;101121.44;;;11.81;100.00
45275;BME280;31019;43.780;25.948;2023-03-04T10:20:45;101116.31;;;12.98;100.00
45275;BME280;31019;43.780;25.948;2023-03-04T10:23:18;101107.28;;;13.75;100.00
45275;BME280;31019;43.780;25.948;2023-03-04T10:25:46;101105.78;;;13.80;100.00
45275;BME280;31019;43.780;25.948;2023-03-04T10:28:20;101093.75;;;12.49;100.00
45275;BME280;31019;43.780;25.948;2023-03-04T10:30:51;101094.31;;;12.64;100.00
45275;BME280;31019;43.780;25.948;2023-03-04T10:33:22;101088.44;;;14.76;100.00
45275;BME280;31019;43.780;25.948;2023-03-04T10:35:57;101089.41;;;12.61;100.00
45275;BME280;31019;43.780;25.948;2023-03-04T10:38:28;101082.50;;;13.37;100.00
45275;BME280;31019;43.780;25.948;2023-03-04T10:40:56;101077.84;;;11.62;100.00
45275;BME280;31019;43.780;25.948;2023-03-04T10:43:23;101068.59;;;13.35;100.00
45275;BME280;31019;43.780;25.948;2023-03-04T10:45:54;101068.03;;;11.96;100.00
45275;BME280;31019;43.780;25.948;2023-03-04T10:48:23;101066.47;;;13.68;100.00
45275;BME280;31019;43.780;25.948;2023-03-04T10:50:50;101063.16;;;13.48;100.00
45275;BME280;31019;43.780;25.948;2023-03-04T10:53:32;101054.91;;;14.00;100.00
45275;BME280;31019;43.780;25.948;2023-03-04T10:56:02;101042.41;;;12.73;100.00
45275;BME280;31019;43.780;25.948;2023-03-04T10:58:29;101041.94;;;13.28;100.00
45275;BME280;31019;43.780;25.948;2023-03-04T11:01:01;101035.81;;;14.88;100.00
45275;BME280;31019;43.780;25.948;2023-03-04T11:03:31;101032.28;;;12.89;100.00
45275;BME280;31019;43.780;25.948;2023-03-04T11:06:13;101022.66;;;14.01;100.00
45275;BME280;31019;43.780;25.948;2023-03-04T11:08:43;101023.03;;;14.05;100.00
45275;BME280;31019;43.780;25.948;2023-03-04T11:11:28;101021.00;;;12.93;100.00
45275;BME280;31019;43.780;25.948;2023-03-04T11:14:00;101015.94;;;13.48;100.00
45275;BME280;31019;43.780;25.948;2023-03-04T11:16:29;101008.28;;;13.52;100.00
45275;BME280;31019;43.780;25.948;2023-03-04T11:19:00;101004.19;;;13.56;100.00
45275;BME280;31019;43.780;25.948;2023-03-04T11:21:35;100998.53;;;12.37;100.00
45275;BME280;31019;43.780;25.948;2023-03-04T11:24:11;100996.34;;;12.98;100.00
45275;BME280;31019;43.780;25.948;2023-03-04T11:26:40;100990.69;;;13.19;100.00
45275;BME280;31019;43.780;25.948;2023-03-04T11:29:14;100986.03;;;12.25;100.00
45275;BME280;31019;43.780;25.948;2023-03-04T11:31:45;100986.06;;;14.20;100.00
45275;BME280;31019;43.780;25.948;2023-03-04T11:34:21;100982.78;;;12.23;100.00
45275;BME280;31019;43.780;25.948;2023-03-04T11:36:53;100986.81;;;13.47;100.00
45275;BME280;31019;43.780;25.948;2023-03-04T11:39:30;100977.34;;;14.80;100.00
45275;BME280;31019;43.780;25.948;2023-03-04T11:42:03;100980.56;;;13.28;100.00
45275;BME280;31019;43.780;25.948;2023-03-04T11:44:30;100975.59;;;13.38;100.00
45275;BME280;31019;43.780;25.948;2023-03-04T11:47:16;100968.00;;;12.72;100.00
45275;BME280;31019;43.780;25.948;2023-03-04T11:50:13;100956.34;;;13.04;100.00
45275;BME280;31019;43.780;25.948;2023-03-04T11:55:42;100960.63;;;12.35;100.00
45275;BME280;31019;43.780;25.948;2023-03-04T11:58:26;100956.34;;;13.04;100.00
45275;BME280;31019;43.780;25.948;2023-03-04T12:00:59;100958.38;;;12.71;100.00
45275;BME280;31019;43.780;25.948;2023-03-04T12:03:43;100954.69;;;13.35;100.00
45275;BME280;31019;43.780;25.948;2023-03-04T12:06:17;100946.97;;;13.20;100.00
45275;BME280;31019;43.780;25.948;2023-03-04T12:08:56;100948.91;;;13.06;100.00
45275;BME280;31019;43.780;25.948;2023-03-04T12:11:35;100933.63;;;14.07;100.00
45275;BME280;31019;43.780;25.948;2023-03-04T12:14:21;100932.34;;;14.10;100.00
45275;BME280;31019;43.780;25.948;2023-03-04T12:17:06;100942.38;;;12.71;100.00
45275;BME280;31019;43.780;25.948;2023-03-04T12:19:49;100942.53;;;13.39;100.00
45275;BME280;31019;43.780;25.948;2023-03-04T12:22:33;100928.53;;;14.54;100.00
45275;BME280;31019;43.780;25.948;2023-03-04T12:25:26;100930.56;;;13.67;100.00
45275;BME280;31019;43.780;25.948;2023-03-04T12:28:08;100926.28;;;12.52;100.00
45275;BME280;31019;43.780;25.948;2023-03-04T12:30:51;100925.03;;;13.43;100.00
45275;BME280;31019;43.780;25.948;2023-03-04T12:33:26;100924.91;;;12.81;100.00
45275;BME280;31019;43.780;25.948;2023-03-04T12:36:07;100914.72;;;13.22;100.00
45275;BME280;31019;43.780;25.948;2023-03-04T12:38:48;100913.09;;;15.45;100.00
45275;BME280;31019;43.780;25.948;2023-03-04T12:41:26;100917.03;;;14.96;100.00
45275;BME280;31019;43.780;25.948;2023-03-04T12:44:03;100906.81;;;16.72;100.00
45275;BME280;31019;43.780;25.948;2023-03-04T12:46:43;100899.63;;;16.16;100.00
45275;BME280;31019;43.780;25.948;2023-03-04T12:49:32;100909.81;;;14.54;100.00
45275;BME280;31019;43.780;25.948;2023-03-04T12:52:11;100903.31;;;13.65;100.00
45275;BME280;31019;43.780;25.948;2023-03-04T12:54:43;100890.97;;;14.01;100.00